createdAt,value
2022-11-29T00:01:23.845Z,11.02
2022-11-29T00:03:51.549Z,9.32
2022-11-29T00:06:21.845Z,9.80
2022-11-29T00:08:48.986Z,7.72
2022-11-29T00:11:46.409Z,7.85
2022-11-29T00:14:17.451Z,9.45
2022-11-29T00:16:49.448Z,9.68
2022-11-29T00:19:16.828Z,9.05
2022-11-29T00:21:43.808Z,9.35
2022-11-29T00:24:10.607Z,7.45
2022-11-29T00:26:38.226Z,9.02
2022-11-29T00:29:05.240Z,8.18
2022-11-29T00:31:33.703Z,8.97
2022-11-29T00:34:03.093Z,8.13
2022-11-29T00:36:30.340Z,9.18
2022-11-29T00:38:57.180Z,7.93
2022-11-29T00:41:24.284Z,9.20
2022-11-29T00:43:51.580Z,9.02
2022-11-29T00:46:18.526Z,9.88
2022-11-29T00:48:45.648Z,8.60
2022-11-29T00:51:12.643Z,9.23
2022-11-29T00:53:39.988Z,8.40
2022-11-29T00:56:07.317Z,8.75
2022-11-29T00:58:36.208Z,8.13
2022-11-29T01:01:03.864Z,9.27
2022-11-29T01:03:31.013Z,8.07
2022-11-29T01:06:06.711Z,8.00
2022-11-29T01:08:33.961Z,7.05
2022-11-29T01:11:19.512Z,8.10
2022-11-29T01:13:47.164Z,8.25
2022-11-29T01:18:43.234Z,6.28
2022-11-29T01:21:19.376Z,7.45
2022-11-29T01:23:47.620Z,8.82
2022-11-29T01:26:18.364Z,7.03
2022-11-29T01:28:47.985Z,7.30
2022-11-29T01:31:17.677Z,6.63
2022-11-29T01:33:44.695Z,7.30
2022-11-29T01:36:13.745Z,7.15
2022-11-29T01:38:42.353Z,6.22
2022-11-29T01:41:24.440Z,7.38
2022-11-29T01:44:14.613Z,7.05
2022-11-29T01:46:44.803Z,5.80
2022-11-29T01:49:16.023Z,7.25
2022-11-29T01:51:47.606Z,6.10
2022-11-29T01:54:15.193Z,7.20
2022-11-29T01:56:45.339Z,6.18
2022-11-29T01:59:15.840Z,5.95
2022-11-29T02:01:42.827Z,6.72
2022-11-29T02:04:10.478Z,6.32
2022-11-29T02:09:04.569Z,6.40
2022-11-29T02:11:31.395Z,6.32
2022-11-29T02:13:58.162Z,7.53
2022-11-29T02:16:37.609Z,6.90
2022-11-29T02:19:46.894Z,7.18
2022-11-29T02:22:28.487Z,6.35
2022-11-29T02:25:34.104Z,7.35
2022-11-29T02:29:01.282Z,5.82
2022-11-29T02:31:30.948Z,6.53
2022-11-29T02:34:06.988Z,7.00
2022-11-29T02:36:50.669Z,7.95
2022-11-29T02:39:42.899Z,6.97
2022-11-29T02:42:18.765Z,6.03
2022-11-29T02:44:54.108Z,7.32
2022-11-29T02:47:36.164Z,7.28
2022-11-29T02:50:03.084Z,7.07
2022-11-29T02:53:09.349Z,7.00
2022-11-29T02:55:54.937Z,7.68
2022-11-29T02:58:34.245Z,6.00
2022-11-29T03:01:35.179Z,5.80
2022-11-29T03:04:26.237Z,8.38
2022-11-29T03:07:04.341Z,8.77
2022-11-29T03:10:14.849Z,10.43
2022-11-29T03:12:45.333Z,9.45
2022-11-29T03:15:42.486Z,10.75
2022-11-29T03:21:23.052Z,10.25
2022-11-29T03:23:58.756Z,8.90
2022-11-29T03:27:03.854Z,9.73
2022-11-29T03:29:44.219Z,8.27
2022-11-29T03:32:34.129Z,8.75
2022-11-29T03:35:04.249Z,9.15
2022-11-29T03:37:57.754Z,7.15
2022-11-29T03:40:43.058Z,7.53
2022-11-29T03:43:18.018Z,9.27
2022-11-29T03:45:53.848Z,10.38
2022-11-29T03:48:33.034Z,9.82
2022-11-29T03:51:13.745Z,8.05
2022-11-29T03:53:57.115Z,8.32
2022-11-29T03:56:31.364Z,7.63
2022-11-29T03:59:21.573Z,8.95
2022-11-29T04:02:28.087Z,10.15
2022-11-29T04:05:17.006Z,8.95
2022-11-29T04:08:18.854Z,8.43
2022-11-29T04:11:16.157Z,8.40
2022-11-29T04:13:48.960Z,8.25
2022-11-29T04:16:39.021Z,10.93
2022-11-29T04:19:28.146Z,7.72
2022-11-29T04:22:38.929Z,8.55
2022-11-29T04:25:24.354Z,8.52
2022-11-29T04:28:19.286Z,9.00
2022-11-29T04:31:17.292Z,8.38
2022-11-29T04:34:18.367Z,9.98
2022-11-29T04:37:24.431Z,8.82
2022-11-29T04:40:11.593Z,7.53
2022-11-29T04:42:55.348Z,7.07
2022-11-29T04:45:59.903Z,8.55
2022-11-29T04:48:38.230Z,7.68
2022-11-29T04:51:35.513Z,7.70
2022-11-29T04:56:41.339Z,7.55
2022-11-29T04:59:18.340Z,8.02
2022-11-29T05:01:54.510Z,7.15
2022-11-29T05:04:25.429Z,7.82
2022-11-29T05:07:11.725Z,8.18
2022-11-29T05:10:22.220Z,8.27
2022-11-29T05:13:05.171Z,6.55
2022-11-29T05:15:54.634Z,7.78
2022-11-29T05:18:27.692Z,7.30
2022-11-29T05:21:24.377Z,7.10
2022-11-29T05:24:10.921Z,7.80
2022-11-29T05:27:08.789Z,7.00
2022-11-29T05:29:48.370Z,6.40
2022-11-29T05:32:18.119Z,6.38
2022-11-29T05:34:55.132Z,6.28
2022-11-29T05:37:39.052Z,6.45
2022-11-29T05:40:34.188Z,6.40
2022-11-29T05:43:11.235Z,9.07
2022-11-29T05:46:00.680Z,7.05
2022-11-29T05:48:58.835Z,6.45
2022-11-29T05:51:54.619Z,6.30
2022-11-29T05:54:45.400Z,8.63
2022-11-29T05:57:40.427Z,7.57
2022-11-29T06:00:10.608Z,6.75
2022-11-29T06:03:03.991Z,6.85
2022-11-29T06:05:40.267Z,8.02
2022-11-29T06:08:25.272Z,8.18
2022-11-29T06:11:06.634Z,7.97
2022-11-29T06:13:51.097Z,9.10
2022-11-29T06:16:31.920Z,9.32
2022-11-29T06:19:38.087Z,9.23
2022-11-29T06:22:32.817Z,8.57
2022-11-29T06:25:10.291Z,11.05
2022-11-29T06:30:14.350Z,9.05
2022-11-29T06:32:56.337Z,10.60
2022-11-29T06:35:48.161Z,8.77
2022-11-29T06:38:31.064Z,7.78
2022-11-29T06:41:02.187Z,8.52
2022-11-29T06:43:30.277Z,10.48
2022-11-29T06:46:04.977Z,10.30
2022-11-29T06:48:45.226Z,9.52
2022-11-29T06:51:25.624Z,10.95
2022-11-29T06:54:30.068Z,13.93
2022-11-29T06:57:28.625Z,11.10
2022-11-29T07:00:09.260Z,9.30
2022-11-29T07:03:13.536Z,11.02
2022-11-29T07:05:40.980Z,10.48
2022-11-29T07:08:23.496Z,10.55
2022-11-29T07:10:54.086Z,12.55
2022-11-29T07:13:21.784Z,12.88
2022-11-29T07:18:34.416Z,11.32
2022-11-29T07:21:19.611Z,9.77
2022-11-29T07:24:28.974Z,9.23
2022-11-29T07:27:21.090Z,11.88
2022-11-29T07:30:15.700Z,11.13
2022-11-29T07:32:51.370Z,10.63
2022-11-29T07:35:32.821Z,10.32
2022-11-29T07:38:17.796Z,9.40
2022-11-29T07:40:52.942Z,9.25
2022-11-29T07:43:56.194Z,8.25
2022-11-29T07:46:23.880Z,8.02
2022-11-29T07:48:51.867Z,8.95
2022-11-29T07:53:46.041Z,9.02
2022-11-29T07:56:13.005Z,7.88
2022-11-29T07:58:40.135Z,9.00
2022-11-29T08:01:07.281Z,8.75
2022-11-29T08:03:35.474Z,8.73
2022-11-29T08:06:03.100Z,6.60
2022-11-29T08:10:57.293Z,6.63
2022-11-29T08:13:24.267Z,7.25
2022-11-29T08:15:51.181Z,9.02
2022-11-29T08:18:18.274Z,10.85
2022-11-29T08:20:46.180Z,9.20
2022-11-29T08:23:14.043Z,7.88
2022-11-29T08:25:41.071Z,8.75
2022-11-29T08:28:08.272Z,9.32
2022-11-29T08:30:35.154Z,8.70
2022-11-29T08:33:02.168Z,10.03
2022-11-29T08:35:29.699Z,9.20
2022-11-29T08:37:56.592Z,8.90
2022-11-29T08:40:24.200Z,10.10
2022-11-29T08:42:51.314Z,9.45
2022-11-29T08:45:18.242Z,8.63
2022-11-29T08:47:44.999Z,9.13
2022-11-29T08:50:15.841Z,7.67
2022-11-29T08:53:07.098Z,6.80
2022-11-29T08:55:42.505Z,9.05
2022-11-29T08:58:13.410Z,7.13
2022-11-29T09:00:42.415Z,8.45
2022-11-29T09:03:27.801Z,6.68
2022-11-29T09:05:55.185Z,8.82
2022-11-29T09:08:22.172Z,7.18
2022-11-29T09:10:49.511Z,8.38
2022-11-29T09:13:17.509Z,9.52
2022-11-29T09:15:44.338Z,9.02
2022-11-29T09:18:11.471Z,8.53
2022-11-29T09:20:38.406Z,7.10
2022-11-29T09:23:05.389Z,5.68
2022-11-29T09:25:33.209Z,7.20
2022-11-29T09:28:02.703Z,8.40
2022-11-29T09:30:31.683Z,7.78
2022-11-29T09:33:05.346Z,6.72
2022-11-29T09:35:33.858Z,6.82
2022-11-29T09:38:00.714Z,7.55
2022-11-29T09:40:53.504Z,9.50
2022-11-29T09:44:00.574Z,6.60
2022-11-29T09:49:16.546Z,6.38
2022-11-29T09:52:02.109Z,5.35
2022-11-29T09:55:06.990Z,6.13
2022-11-29T09:57:34.013Z,5.95
2022-11-29T10:00:07.226Z,6.72
2022-11-29T10:02:59.262Z,5.68
2022-11-29T10:05:36.883Z,6.32
2022-11-29T10:08:20.005Z,6.80
2022-11-29T10:10:49.058Z,7.05
2022-11-29T10:13:35.374Z,6.55
2022-11-29T10:16:19.570Z,5.88
2022-11-29T10:18:52.202Z,3.80
2022-11-29T10:21:25.299Z,5.15
2022-11-29T10:23:57.318Z,5.28
2022-11-29T10:26:27.309Z,4.55
2022-11-29T10:28:57.878Z,5.40
2022-11-29T10:31:27.210Z,5.47
2022-11-29T10:33:56.005Z,4.43
2022-11-29T10:36:31.924Z,4.55
2022-11-29T10:39:12.982Z,5.25
2022-11-29T10:41:41.152Z,5.32
2022-11-29T10:44:14.371Z,5.80
2022-11-29T10:46:41.681Z,5.63
2022-11-29T10:49:15.548Z,5.28
2022-11-29T10:51:43.552Z,7.65
2022-11-29T10:54:25.619Z,6.15
2022-11-29T10:56:53.665Z,6.35
2022-11-29T10:59:23.373Z,5.35
2022-11-29T11:01:51.697Z,6.05
2022-11-29T11:04:28.793Z,6.50
2022-11-29T11:07:01.862Z,6.28
2022-11-29T11:09:36.304Z,6.00
2022-11-29T11:12:19.861Z,5.28
2022-11-29T11:14:48.189Z,5.82
2022-11-29T11:17:22.495Z,5.43
2022-11-29T11:20:30.373Z,7.47
2022-11-29T11:23:02.869Z,6.32
2022-11-29T11:25:34.641Z,7.78
2022-11-29T11:28:23.968Z,5.00
2022-11-29T11:31:11.289Z,5.70
2022-11-29T11:36:08.342Z,7.25
2022-11-29T11:38:41.596Z,6.18
2022-11-29T11:41:19.038Z,9.18
2022-11-29T11:44:07.170Z,7.20
2022-11-29T11:47:01.898Z,6.07
2022-11-29T11:49:36.861Z,7.00
2022-11-29T11:52:05.795Z,8.75
2022-11-29T11:54:32.991Z,6.38
2022-11-29T11:57:00.415Z,6.78
2022-11-29T11:59:27.711Z,5.95
2022-11-29T12:01:54.475Z,7.00
2022-11-29T12:04:30.404Z,5.67
2022-11-29T12:07:09.595Z,8.27
2022-11-29T12:09:45.568Z,8.20
2022-11-29T12:12:37.022Z,7.38
2022-11-29T12:15:16.477Z,8.35
2022-11-29T12:17:46.917Z,7.30
2022-11-29T12:20:50.813Z,9.20
2022-11-29T12:23:44.465Z,7.13
2022-11-29T12:26:48.867Z,7.03
2022-11-29T12:29:15.764Z,7.70
2022-11-29T12:32:14.678Z,8.60
2022-11-29T12:34:47.562Z,10.00
2022-11-29T12:37:53.152Z,8.02
2022-11-29T12:40:41.699Z,7.22
2022-11-29T12:43:26.994Z,8.45
2022-11-29T12:46:27.547Z,9.98
2022-11-29T12:49:07.105Z,8.95
2022-11-29T12:52:00.888Z,10.13
2022-11-29T12:55:06.016Z,11.32
2022-11-29T12:57:35.816Z,10.02
2022-11-29T13:00:17.571Z,9.20
2022-11-29T13:03:09.408Z,8.43
2022-11-29T13:06:10.227Z,8.55
2022-11-29T13:08:39.748Z,9.77
2022-11-29T13:11:25.712Z,11.13
2022-11-29T13:14:34.597Z,10.77
2022-11-29T13:17:06.423Z,8.93
2022-11-29T13:19:49.921Z,6.32
2022-11-29T13:22:39.860Z,9.02
2022-11-29T13:25:18.612Z,7.25
2022-11-29T13:28:01.055Z,7.78
2022-11-29T13:30:28.609Z,8.95
2022-11-29T13:33:16.611Z,10.93
2022-11-29T13:36:03.766Z,7.13
2022-11-29T13:38:43.027Z,8.07
2022-11-29T13:41:27.010Z,7.65
2022-11-29T13:44:02.787Z,8.35
2022-11-29T13:47:07.789Z,7.40
2022-11-29T13:49:58.143Z,7.10
2022-11-29T13:52:41.868Z,7.70
2022-11-29T13:55:12.181Z,5.50
2022-11-29T14:00:45.980Z,7.85
2022-11-29T14:03:20.951Z,8.50
2022-11-29T14:05:53.569Z,6.38
2022-11-29T14:09:02.016Z,6.72
2022-11-29T14:11:29.750Z,6.28
2022-11-29T14:14:03.386Z,5.78
2022-11-29T14:16:37.799Z,4.80
2022-11-29T14:19:18.268Z,5.50
2022-11-29T14:22:05.315Z,7.28
2022-11-29T14:24:32.085Z,6.18
2022-11-29T14:27:19.342Z,6.40
2022-11-29T14:29:49.656Z,6.60
2022-11-29T14:32:26.763Z,6.78
2022-11-29T14:35:11.662Z,7.35
2022-11-29T14:38:04.582Z,9.00
2022-11-29T14:40:40.251Z,9.20
2022-11-29T14:43:24.570Z,9.18
2022-11-29T14:46:09.857Z,5.95
2022-11-29T14:48:37.281Z,8.43
2022-11-29T14:51:09.017Z,7.95
2022-11-29T14:53:38.134Z,8.27
2022-11-29T14:56:29.762Z,9.00
2022-11-29T14:59:34.449Z,6.85
2022-11-29T15:02:23.841Z,8.82
2022-11-29T15:04:53.180Z,8.80
2022-11-29T15:07:30.134Z,9.52
2022-11-29T15:10:02.732Z,14.23
2022-11-29T15:12:36.023Z,8.95
2022-11-29T15:15:28.387Z,8.52
2022-11-29T15:18:18.430Z,11.18
2022-11-29T15:21:09.146Z,12.48
2022-11-29T15:23:43.613Z,8.55
2022-11-29T15:26:18.365Z,8.30
2022-11-29T15:28:45.374Z,9.90
2022-11-29T15:31:20.947Z,8.45
2022-11-29T15:33:49.365Z,9.68
2022-11-29T15:36:18.355Z,9.02
2022-11-29T15:38:49.574Z,10.23
2022-11-29T15:41:20.564Z,8.18
2022-11-29T15:43:52.481Z,8.95
2022-11-29T15:46:27.885Z,7.97
2022-11-29T15:48:55.362Z,9.55
2022-11-29T15:51:34.952Z,8.00
2022-11-29T15:54:29.155Z,7.70
2022-11-29T15:57:08.872Z,8.43
2022-11-29T15:59:46.411Z,7.13
2022-11-29T16:02:28.470Z,7.47
2022-11-29T16:04:59.691Z,8.90
2022-11-29T16:07:32.365Z,10.77
2022-11-29T16:10:11.898Z,9.90
2022-11-29T16:13:02.410Z,9.30
2022-11-29T16:15:31.974Z,11.60
2022-11-29T16:18:11.867Z,8.35
2022-11-29T16:20:39.489Z,12.10
2022-11-29T16:23:12.176Z,10.07
2022-11-29T16:26:01.409Z,10.18
2022-11-29T16:28:36.321Z,9.95
2022-11-29T16:31:04.985Z,11.65
2022-11-29T16:33:32.415Z,11.13
2022-11-29T16:36:24.236Z,8.38
2022-11-29T16:39:16.279Z,9.35
2022-11-29T16:41:43.841Z,7.60
2022-11-29T16:44:49.867Z,10.38
2022-11-29T16:47:24.133Z,6.95
2022-11-29T16:50:03.360Z,6.95
2022-11-29T16:52:34.805Z,8.70
2022-11-29T16:55:01.852Z,7.57
2022-11-29T16:57:29.931Z,7.88
2022-11-29T16:59:56.916Z,9.25
2022-11-29T17:02:24.089Z,10.02
2022-11-29T17:04:51.578Z,9.63
2022-11-29T17:07:28.643Z,9.63
2022-11-29T17:09:56.321Z,11.23
2022-11-29T17:12:23.204Z,9.38
2022-11-29T17:14:50.427Z,11.10
2022-11-29T17:17:18.637Z,10.45
2022-11-29T17:19:45.680Z,9.98
2022-11-29T17:22:12.715Z,10.63
2022-11-29T17:24:43.535Z,11.27
2022-11-29T17:27:13.597Z,10.98
2022-11-29T17:29:40.373Z,9.05
2022-11-29T17:32:07.532Z,9.30
2022-11-29T17:34:35.650Z,9.88
2022-11-29T17:37:02.514Z,9.65
2022-11-29T17:39:29.364Z,9.93
2022-11-29T17:41:56.223Z,10.45
2022-11-29T17:44:23.274Z,11.32
2022-11-29T17:46:50.311Z,9.43
2022-11-29T17:49:18.863Z,9.10
2022-11-29T17:51:53.914Z,10.23
2022-11-29T17:54:24.560Z,9.60
2022-11-29T17:56:52.035Z,8.90
2022-11-29T17:59:19.076Z,11.05
2022-11-29T18:01:47.492Z,10.60
2022-11-29T18:04:14.629Z,8.65
2022-11-29T18:06:41.702Z,8.05
2022-11-29T18:09:10.224Z,8.60
2022-11-29T18:11:48.176Z,10.55
2022-11-29T18:14:19.106Z,9.43
2022-11-29T18:16:46.507Z,6.80
2022-11-29T18:19:17.929Z,8.32
2022-11-29T18:21:46.110Z,11.38
2022-11-29T18:24:13.027Z,11.07
2022-11-29T18:26:40.747Z,11.05
2022-11-29T18:29:09.550Z,9.57
2022-11-29T18:34:07.064Z,9.63
2022-11-29T18:36:37.124Z,11.05
2022-11-29T18:39:14.114Z,8.45
2022-11-29T18:41:44.104Z,11.50
2022-11-29T18:44:14.379Z,9.48
2022-11-29T18:46:43.763Z,9.88
2022-11-29T18:49:12.947Z,9.30
2022-11-29T18:51:42.827Z,9.77
2022-11-29T18:54:10.237Z,9.23
2022-11-29T18:56:37.848Z,10.32
2022-11-29T18:59:14.667Z,9.80
2022-11-29T19:01:42.832Z,8.45
2022-11-29T19:04:18.330Z,10.27
2022-11-29T19:06:45.496Z,10.70
2022-11-29T19:09:14.994Z,9.38
2022-11-29T19:11:42.069Z,9.48
2022-11-29T19:14:11.914Z,9.25
2022-11-29T19:16:41.272Z,8.52
2022-11-29T19:19:08.402Z,11.80
2022-11-29T19:21:35.550Z,12.00
2022-11-29T19:24:05.693Z,10.73
2022-11-29T19:26:33.495Z,10.25
2022-11-29T19:29:01.957Z,10.65
2022-11-29T19:31:29.296Z,8.05
2022-11-29T19:33:57.332Z,7.70
2022-11-29T19:36:44.184Z,7.95
2022-11-29T19:39:17.056Z,9.35
2022-11-29T19:41:59.910Z,8.60
2022-11-29T19:45:42.188Z,6.68
2022-11-29T20:02:50.812Z,7.50
2022-11-29T20:05:18.060Z,8.70
2022-11-29T20:07:45.215Z,9.45
2022-11-29T20:10:17.895Z,7.32
2022-11-29T20:12:55.252Z,8.88
2022-11-29T20:15:25.932Z,8.55
2022-11-29T20:17:54.105Z,9.70
2022-11-29T20:20:21.992Z,10.00
2022-11-29T20:22:52.588Z,10.52
2022-11-29T20:25:19.551Z,9.50
2022-11-29T20:27:47.015Z,10.68
2022-11-29T20:30:14.921Z,8.90
2022-11-29T20:32:44.190Z,10.75
2022-11-29T20:35:12.006Z,8.80
2022-11-29T20:38:03.885Z,6.32
2022-11-29T20:41:02.947Z,6.93
2022-11-29T20:43:47.686Z,7.82
2022-11-29T20:46:14.802Z,10.35
2022-11-29T20:48:41.929Z,8.20
2022-11-29T20:51:10.640Z,9.57
2022-11-29T20:53:43.023Z,8.00
2022-11-29T20:56:11.347Z,5.70
2022-11-29T20:58:38.948Z,9.60
2022-11-29T21:01:06.447Z,9.65
2022-11-29T21:03:34.354Z,9.43
2022-11-29T21:06:02.791Z,9.05
2022-11-29T21:08:29.917Z,9.60
2022-11-29T21:11:06.214Z,9.90
2022-11-29T21:13:34.038Z,10.70
2022-11-29T21:16:01.630Z,10.52
2022-11-29T21:21:36.910Z,8.32
2022-11-29T21:24:20.758Z,5.13
2022-11-29T21:26:51.410Z,9.85
2022-11-29T21:29:20.398Z,10.68
2022-11-29T21:31:49.048Z,10.32
2022-11-29T21:34:16.005Z,9.57
2022-11-29T21:36:44.768Z,9.75
2022-11-29T21:39:14.617Z,12.57
2022-11-29T21:41:41.836Z,11.30
2022-11-29T21:44:08.867Z,11.18
2022-11-29T21:46:36.193Z,9.68
2022-11-29T21:49:03.726Z,8.05
2022-11-29T21:51:30.412Z,11.15
2022-11-29T21:53:57.184Z,12.07
2022-11-29T21:56:23.872Z,12.13
2022-11-29T21:58:50.821Z,11.65
2022-11-29T22:01:21.117Z,10.77
2022-11-29T22:03:48.221Z,12.23
2022-11-29T22:06:20.423Z,12.30
2022-11-29T22:08:48.403Z,11.32
2022-11-29T22:11:17.105Z,10.57
2022-11-29T22:14:04.142Z,10.73
2022-11-29T22:16:31.029Z,11.05
2022-11-29T22:18:57.801Z,10.45
2022-11-29T22:21:24.967Z,10.65
2022-11-29T22:23:54.834Z,12.30
2022-11-29T22:26:21.754Z,11.40
2022-11-29T22:28:48.533Z,11.77
2022-11-29T22:31:15.496Z,11.47
2022-11-29T22:33:42.310Z,12.43
2022-11-29T22:36:11.995Z,11.23
2022-11-29T22:38:40.103Z,10.65
2022-11-29T22:41:10.141Z,11.60
2022-11-29T22:43:38.193Z,11.60
2022-11-29T22:46:10.982Z,10.57
2022-11-29T22:48:39.186Z,10.70
2022-11-29T22:51:09.228Z,11.77
2022-11-29T22:53:37.675Z,12.05
2022-11-29T22:56:06.614Z,10.13
2022-11-29T22:58:33.934Z,11.05
2022-11-29T23:01:09.515Z,13.20
2022-11-29T23:03:41.938Z,12.48
2022-11-29T23:06:13.909Z,10.82
2022-11-29T23:08:41.916Z,10.32
2022-11-29T23:11:11.930Z,9.38
2022-11-29T23:13:41.473Z,12.60
2022-11-29T23:16:10.702Z,11.00
2022-11-29T23:18:39.085Z,12.75
2022-11-29T23:21:09.367Z,14.52
2022-11-29T23:23:37.331Z,13.75
2022-11-29T23:28:32.790Z,10.65
2022-11-29T23:31:00.218Z,14.45
2022-11-29T23:33:28.202Z,14.38
2022-11-29T23:36:02.793Z,10.35
2022-11-29T23:38:30.018Z,14.23
2022-11-29T23:40:57.251Z,13.30
2022-11-29T23:43:24.606Z,12.65
2022-11-29T23:45:51.354Z,13.75
2022-11-29T23:48:18.306Z,13.43
2022-11-29T23:50:46.204Z,12.55
2022-11-29T23:53:14.275Z,14.35
2022-11-29T23:55:42.033Z,14.93
2022-11-29T23:58:09.682Z,13.80
